Time;durP1;ratioP1;P1;durP2;ratioP2;P2;SDS_P1;SDS_P2;PMS_P1;PMS_P2;Temp;Humidity;BMP_temperature;BMP_pressure;BME280_temperature;BME280_humidity;BME280_pressure;Samples;Min_cycle;Max_cycle;Signal;HPM_P1;HPM_P2
2023/05/07 00:01:06;;;;;;;13.25;6.22;;;;;;;17.66;66.05;99879.94;4949080;28;20186;-87
2023/05/07 00:03:33;;;;;;;15.40;7.00;;;;;;;17.65;65.90;99875.56;4899575;28;20062;-89
2023/05/07 00:06:00;;;;;;;13.68;6.90;;;;;;;17.66;65.83;99871.88;4934220;28;20049;-89
2023/05/07 00:08:27;;;;;;;11.18;6.40;;;;;;;17.66;65.37;99871.88;4953155;28;20054;-89
2023/05/07 00:10:54;;;;;;;11.75;6.15;;;;;;;17.58;65.89;99882.69;4930227;28;20040;-89
2023/05/07 00:13:21;;;;;;;10.27;6.10;;;;;;;17.52;66.05;99878.84;4952636;28;20516;-89
2023/05/07 00:15:48;;;;;;;13.23;5.78;;;;;;;17.55;66.21;99878.50;4950651;28;20067;-90
2023/05/07 00:18:15;;;;;;;9.93;6.15;;;;;;;17.56;66.09;99890.09;4946657;28;20054;-89
2023/05/07 00:20:42;;;;;;;8.65;6.13;;;;;;;17.54;66.38;99882.19;4938911;28;20054;-89
2023/05/07 00:23:09;;;;;;;9.43;6.05;;;;;;;17.54;66.41;99876.81;4935169;28;20043;-89
2023/05/07 00:25:35;;;;;;;10.48;6.00;;;;;;;17.53;66.27;99874.34;4945411;28;20047;-88
2023/05/07 00:28:03;;;;;;;12.90;6.53;;;;;;;17.50;66.54;99870.16;4951007;28;20047;-88
2023/05/07 00:30:30;;;;;;;16.00;5.97;;;;;;;17.48;66.33;99866.81;4950669;28;20066;-89
2023/05/07 00:32:57;;;;;;;15.10;6.25;;;;;;;17.44;66.47;99862.81;4921240;28;20042;-89
2023/05/07 00:35:24;;;;;;;11.25;6.53;;;;;;;17.43;66.49;99858.47;4918685;28;20046;-89
2023/05/07 00:37:51;;;;;;;12.02;6.32;;;;;;;17.36;66.64;99866.41;4920433;28;20042;-89
2023/05/07 00:40:17;;;;;;;13.50;5.95;;;;;;;17.41;66.80;99857.81;4931602;28;20053;-89
2023/05/07 00:42:46;;;;;;;21.17;7.20;;;;;;;17.36;66.17;99852.97;4950367;28;20868;-89
2023/05/07 00:45:15;;;;;;;10.88;5.97;;;;;;;17.38;66.07;99857.31;4954876;28;20055;-89
2023/05/07 00:47:41;;;;;;;11.40;5.82;;;;;;;17.33;66.21;99857.88;4954348;28;20051;-89
2023/05/07 00:50:12;;;;;;;9.38;5.95;;;;;;;17.35;66.38;99855.81;4933859;28;20803;-89
2023/05/07 00:52:39;;;;;;;14.95;5.75;;;;;;;17.32;66.65;99859.69;4930858;28;20044;-88
2023/05/07 00:55:07;;;;;;;12.65;6.22;;;;;;;17.31;66.46;99849.16;4917856;28;20082;-88
2023/05/07 00:57:37;;;;;;;12.00;6.32;;;;;;;17.28;66.06;99854.91;4921146;28;20058;-89
2023/05/07 01:00:05;;;;;;;9.73;5.97;;;;;;;17.27;66.15;99853.22;4932987;28;20047;-89
2023/05/07 01:02:32;;;;;;;11.85;6.00;;;;;;;17.20;66.62;99854.94;4917837;28;20692;-89
2023/05/07 01:05:00;;;;;;;10.27;5.38;;;;;;;17.18;66.22;99849.75;4953354;28;20057;-89
2023/05/07 01:07:27;;;;;;;11.00;5.40;;;;;;;17.20;66.11;99852.25;4969397;28;20047;-87
2023/05/07 01:09:54;;;;;;;8.85;5.45;;;;;;;17.19;66.25;99856.78;4934306;28;20773;-88
2023/05/07 01:12:21;;;;;;;10.60;5.47;;;;;;;17.23;66.07;99854.59;4957055;28;20053;-88
2023/05/07 01:14:49;;;;;;;9.73;5.70;;;;;;;17.18;66.00;99849.75;4938836;28;20554;-88
2023/05/07 01:17:17;;;;;;;11.93;6.25;;;;;;;17.14;65.89;99854.63;4956654;28;20529;-88
2023/05/07 01:19:45;;;;;;;12.07;5.95;;;;;;;17.11;65.99;99849.63;4937322;28;20059;-87
2023/05/07 01:22:15;;;;;;;11.82;5.63;;;;;;;17.02;65.85;99848.03;4934864;28;20047;-88
2023/05/07 01:24:48;;;;;;;10.55;5.45;;;;;;;17.02;66.24;99842.66;4939503;28;20465;-89
2023/05/07 01:27:16;;;;;;;11.57;5.97;;;;;;;17.04;66.28;99843.28;4956826;28;20442;-88
2023/05/07 01:29:43;;;;;;;15.18;5.95;;;;;;;17.02;66.27;99834.59;4948762;28;20038;-88
2023/05/07 01:32:11;;;;;;;16.63;5.78;;;;;;;17.02;66.42;99831.94;4955416;28;20138;-88
2023/05/07 01:34:38;;;;;;;10.13;5.53;;;;;;;17.02;66.36;99836.44;4940905;28;20051;-88
2023/05/07 01:37:05;;;;;;;10.35;6.25;;;;;;;17.00;66.49;99842.00;4915726;28;20073;-87
2023/05/07 01:39:32;;;;;;;12.38;5.75;;;;;;;16.96;66.48;99843.34;4933652;28;20411;-88
2023/05/07 01:41:59;;;;;;;10.27;5.30;;;;;;;17.01;66.40;99843.66;4933504;28;20464;-89
2023/05/07 01:44:26;;;;;;;8.13;5.68;;;;;;;16.87;66.80;99844.44;4955190;28;20403;-88
2023/05/07 01:46:54;;;;;;;14.00;6.10;;;;;;;16.90;66.67;99839.53;4951890;28;20053;-88
2023/05/07 01:49:21;;;;;;;13.40;6.22;;;;;;;16.87;66.65;99836.38;4934177;28;20047;-89
2023/05/07 01:51:48;;;;;;;11.70;5.50;;;;;;;16.90;66.92;99836.03;4966089;28;20054;-89
2023/05/07 01:54:15;;;;;;;11.18;5.53;;;;;;;16.82;66.78;99826.19;4922549;28;20047;-88
2023/05/07 01:56:42;;;;;;;11.77;5.35;;;;;;;16.84;66.78;99834.03;4933797;28;20134;-89
2023/05/07 01:59:09;;;;;;;11.95;5.45;;;;;;;16.83;66.54;99824.31;4932292;28;20163;-89
2023/05/07 02:01:35;;;;;;;13.15;5.57;;;;;;;16.79;66.79;99823.84;4918893;28;20446;-89
2023/05/07 02:04:02;;;;;;;12.10;5.55;;;;;;;16.78;66.63;99830.22;4933526;28;20047;-89
2023/05/07 02:06:30;;;;;;;8.27;5.50;;;;;;;16.78;66.70;99835.56;4931336;28;20125;-89
2023/05/07 02:09:02;;;;;;;;;;;;;;;16.48;67.66;99826.47;4949818;28;20058;-90
2023/05/07 02:11:29;;;;;;;13.13;6.07;;;;;;;16.66;67.08;99829.75;4964379;28;21295;-89
2023/05/07 02:13:56;;;;;;;8.40;5.28;;;;;;;16.70;66.68;99835.59;4949423;28;20055;-89
2023/05/07 02:16:32;;;;;;;15.68;5.68;;;;;;;16.60;66.25;99833.13;4940639;28;20055;-88
2023/05/07 02:18:58;;;;;;;11.13;5.32;;;;;;;16.67;66.19;99833.25;4911799;28;20055;-88
2023/05/07 02:21:25;;;;;;;8.73;4.95;;;;;;;16.66;66.44;99836.94;4911543;28;20043;-88
2023/05/07 02:23:55;;;;;;;9.57;5.75;;;;;;;16.65;66.17;99840.63;4948798;28;20043;-89
2023/05/07 02:26:21;;;;;;;11.10;5.60;;;;;;;16.68;65.67;99837.59;4932975;28;20484;-89
2023/05/07 02:28:48;;;;;;;9.32;5.57;;;;;;;16.58;66.00;99836.97;4952534;28;20046;-89
2023/05/07 02:31:15;;;;;;;12.63;5.40;;;;;;;16.54;66.37;99841.00;4936529;28;20110;-89
2023/05/07 02:33:42;;;;;;;11.00;5.25;;;;;;;16.56;66.31;99831.78;4931790;28;20134;-90
2023/05/07 02:36:10;;;;;;;9.05;5.35;;;;;;;16.52;66.35;99830.47;4948707;28;20138;-89
2023/05/07 02:38:44;;;;;;;10.20;5.72;;;;;;;16.50;66.60;99840.53;4940541;28;20063;-87
2023/05/07 02:41:11;;;;;;;11.32;5.72;;;;;;;16.49;66.45;99838.88;4948526;28;20042;-89
2023/05/07 02:43:37;;;;;;;18.23;5.97;;;;;;;16.52;66.87;99841.19;4963906;28;20070;-88
2023/05/07 02:46:06;;;;;;;8.95;5.18;;;;;;;16.47;66.61;99844.41;4935425;28;20472;-89
2023/05/07 02:48:36;;;;;;;12.68;5.95;;;;;;;16.45;66.73;99842.91;4927925;28;20393;-87
2023/05/07 02:51:05;;;;;;;9.90;6.25;;;;;;;16.44;66.99;99839.38;4935750;28;20477;-89
2023/05/07 02:53:33;;;;;;;16.50;5.88;;;;;;;16.41;67.29;99844.25;4926992;28;20047;-89
2023/05/07 02:56:01;;;;;;;11.07;5.40;;;;;;;16.42;67.05;99830.69;4932218;28;20445;-89
2023/05/07 02:58:28;;;;;;;11.38;5.28;;;;;;;16.42;66.91;99835.22;4918405;28;20380;-88
2023/05/07 03:00:56;;;;;;;9.10;5.50;;;;;;;16.38;66.85;99840.06;4950930;28;20075;-89
2023/05/07 03:03:45;;;;;;;11.30;5.63;;;;;;;16.40;66.67;99839.91;4948632;28;20054;-89
2023/05/07 03:06:12;;;;;;;11.15;5.20;;;;;;;16.38;66.85;99849.97;4935757;28;20047;-89
2023/05/07 03:08:39;;;;;;;13.85;5.30;;;;;;;16.35;67.03;99847.63;4947587;28;20056;-87
2023/05/07 03:11:06;;;;;;;7.85;5.72;;;;;;;16.33;66.98;99844.28;4951169;28;20047;-89
2023/05/07 03:13:33;;;;;;;6.75;5.13;;;;;;;16.26;66.85;99844.16;4949585;28;20073;-89
2023/05/07 03:16:00;;;;;;;7.65;5.30;;;;;;;16.27;67.09;99843.97;4916598;28;20082;-89
2023/05/07 03:18:27;;;;;;;10.63;6.25;;;;;;;16.28;66.85;99837.63;4969592;28;20134;-89
2023/05/07 03:20:53;;;;;;;6.40;5.15;;;;;;;16.27;67.07;99840.44;4955440;28;20483;-88
2023/05/07 03:23:20;;;;;;;8.10;5.07;;;;;;;16.30;66.92;99836.59;4920889;28;20043;-89
2023/05/07 03:25:50;;;;;;;7.18;5.25;;;;;;;16.30;66.84;99833.91;4949113;28;20047;-89
2023/05/07 03:28:17;;;;;;;7.18;5.00;;;;;;;16.22;66.79;99840.97;4948326;28;20043;-89
2023/05/07 03:30:50;;;;;;;;;;;;;;;15.91;68.25;99834.69;4892808;28;20067;-89
2023/05/07 03:33:17;;;;;;;12.27;5.13;;;;;;;16.13;67.38;99825.94;4933670;28;20009;-89
2023/05/07 03:35:44;;;;;;;10.82;5.50;;;;;;;16.16;67.29;99828.25;4920087;28;20130;-88
2023/05/07 03:38:16;;;;;;;8.93;5.45;;;;;;;16.15;67.37;99823.91;4918944;28;20047;-89
2023/05/07 03:40:43;;;;;;;9.60;5.47;;;;;;;16.16;67.30;99824.75;4916173;28;20050;-89
2023/05/07 03:43:10;;;;;;;10.85;5.30;;;;;;;16.13;67.47;99825.06;4949882;28;20051;-89
2023/05/07 03:45:40;;;;;;;9.55;6.03;;;;;;;16.16;67.47;99819.41;4926010;28;20052;-89
2023/05/07 03:48:18;;;;;;;9.57;4.35;;;;;;;16.12;67.49;99821.56;4948699;28;20134;-89
2023/05/07 03:50:46;;;;;;;22.45;5.70;;;;;;;16.16;67.46;99832.78;4922531;28;20055;-88
2023/05/07 03:53:13;;;;;;;9.10;5.43;;;;;;;16.10;67.69;99830.78;4947240;28;20047;-89
2023/05/07 03:55:40;;;;;;;10.88;5.35;;;;;;;16.14;67.72;99834.81;4923715;28;20051;-88
2023/05/07 03:58:06;;;;;;;6.80;5.05;;;;;;;16.16;67.27;99835.47;4961549;28;20442;-89
2023/05/07 04:00:37;;;;;;;7.72;5.22;;;;;;;16.17;67.33;99840.66;4920226;28;20047;-89
2023/05/07 04:03:13;;;;;;;8.10;4.80;;;;;;;16.15;67.76;99839.16;4952488;28;20058;-89
2023/05/07 04:05:40;;;;;;;8.63;5.40;;;;;;;16.21;67.21;99843.84;4933777;28;20373;-88
2023/05/07 04:08:07;;;;;;;14.65;4.97;;;;;;;16.20;67.20;99847.50;4955859;28;20114;-89
2023/05/07 04:10:38;;;;;;;15.27;5.47;;;;;;;16.18;67.67;99847.69;4924634;28;20097;-89
2023/05/07 04:13:09;;;;;;;11.20;5.10;;;;;;;16.18;67.63;99849.50;4949571;28;20047;-89
2023/05/07 04:15:36;;;;;;;7.53;5.35;;;;;;;16.19;67.58;99851.19;4933892;28;20536;-89
2023/05/07 04:18:06;;;;;;;11.43;5.20;;;;;;;16.20;67.65;99848.34;4951450;28;20408;-89
2023/05/07 04:20:36;;;;;;;11.70;5.10;;;;;;;16.24;67.62;99851.53;4964239;28;20047;-89
2023/05/07 04:23:06;;;;;;;9.55;5.63;;;;;;;16.19;67.82;99851.19;4937302;28;20047;-88
2023/05/07 04:25:34;;;;;;;7.55;4.93;;;;;;;16.27;67.79;99854.69;4919373;28;20053;-88
2023/05/07 04:28:08;;;;;;;9.07;5.10;;;;;;;16.34;67.87;99862.03;4919940;28;20051;-89
2023/05/07 04:30:36;;;;;;;9.73;5.47;;;;;;;16.27;67.89;99868.06;4956359;28;20047;-89
2023/05/07 04:33:06;;;;;;;10.57;5.65;;;;;;;16.31;67.76;99855.19;4953110;28;20062;-89
2023/05/07 04:35:35;;;;;;;8.90;4.85;;;;;;;16.37;67.50;99867.06;4936762;28;20401;-89
2023/05/07 04:38:03;;;;;;;6.95;4.65;;;;;;;16.37;67.99;99867.06;4951880;28;20059;-89
2023/05/07 04:40:30;;;;;;;7.88;4.55;;;;;;;16.36;67.64;99866.22;4920117;28;20577;-89
2023/05/07 04:42:58;;;;;;;9.10;5.97;;;;;;;16.35;68.11;99861.84;4919484;28;20070;-89
2023/05/07 04:45:25;;;;;;;14.10;5.32;;;;;;;16.37;68.65;99872.41;4923597;28;20066;-90
2023/05/07 04:47:54;;;;;;;9.27;4.50;;;;;;;16.27;68.45;99873.44;4930998;28;20137;-89
2023/05/07 04:50:23;;;;;;;7.90;5.15;;;;;;;16.35;68.84;99871.75;4932734;28;20495;-89
2023/05/07 04:52:52;;;;;;;9.48;5.93;;;;;;;16.44;68.88;99876.09;4955388;28;20126;-89
2023/05/07 04:55:20;;;;;;;12.15;6.07;;;;;;;16.39;69.36;99876.59;4933744;28;20054;-89
2023/05/07 04:57:47;;;;;;;11.10;5.50;;;;;;;16.44;69.36;99878.75;4938652;28;20065;-89
2023/05/07 05:00:16;;;;;;;10.90;6.00;;;;;;;16.48;68.36;99877.38;4935844;28;20039;-88
2023/05/07 05:02:44;;;;;;;9.63;5.97;;;;;;;16.57;67.36;99879.03;4930806;28;20407;-89
2023/05/07 05:05:14;;;;;;;10.80;6.90;;;;;;;16.63;66.67;99891.75;4933851;28;20054;-90
2023/05/07 05:07:41;;;;;;;9.18;6.70;;;;;;;16.65;66.07;99892.41;4937723;28;20498;-88
2023/05/07 05:10:09;;;;;;;11.43;6.78;;;;;;;16.69;65.83;99892.91;4927806;28;20058;-89
2023/05/07 05:12:38;;;;;;;16.95;7.55;;;;;;;16.74;65.68;99897.72;4918874;28;20051;-89
2023/05/07 05:15:06;;;;;;;9.40;6.05;;;;;;;16.77;65.71;99900.91;4936666;28;20050;-89
2023/05/07 05:17:34;;;;;;;9.27;6.38;;;;;;;16.82;65.59;99901.25;4947509;28;20069;-90
2023/05/07 05:20:03;;;;;;;10.07;6.72;;;;;;;16.79;65.71;99903.44;4920708;28;20542;-89
2023/05/07 05:22:31;;;;;;;11.52;6.72;;;;;;;16.82;65.41;99903.94;4935921;28;20043;-89
2023/05/07 05:25:00;;;;;;;14.48;7.38;;;;;;;16.75;65.17;99900.25;4938070;28;20055;-89
2023/05/07 05:27:27;;;;;;;12.15;6.43;;;;;;;16.82;65.33;99903.13;4915545;28;20144;-89
2023/05/07 05:29:54;;;;;;;12.10;7.55;;;;;;;16.80;65.44;99900.59;4916490;28;20054;-88
2023/05/07 05:32:21;;;;;;;12.95;6.90;;;;;;;16.83;65.51;99897.56;4947650;28;20186;-89
2023/05/07 05:34:49;;;;;;;16.20;8.20;;;;;;;16.89;65.34;99901.38;4938420;28;20087;-90
2023/05/07 05:37:16;;;;;;;12.25;7.22;;;;;;;16.88;65.06;99905.91;4935264;28;20043;-88
2023/05/07 05:39:44;;;;;;;12.95;7.30;;;;;;;16.89;64.75;99898.69;4936934;28;20050;-89
2023/05/07 05:42:11;;;;;;;10.95;6.43;;;;;;;16.87;65.32;99896.22;4921428;28;20051;-89
2023/05/07 05:44:38;;;;;;;12.63;7.00;;;;;;;16.94;65.17;99899.00;4944408;28;20653;-89
2023/05/07 05:47:05;;;;;;;15.43;7.78;;;;;;;16.91;65.01;99894.84;4933731;28;20051;-90
2023/05/07 05:49:32;;;;;;;10.02;7.65;;;;;;;16.93;64.74;99897.34;4951959;28;20058;-89
2023/05/07 05:51:59;;;;;;;13.73;7.82;;;;;;;16.89;64.77;99896.88;4925771;28;20106;-89
2023/05/07 05:54:27;;;;;;;14.68;7.57;;;;;;;16.95;64.64;99898.00;4914820;28;20051;-89
2023/05/07 05:56:53;;;;;;;11.40;7.15;;;;;;;17.00;65.00;99901.00;4971128;28;20869;-89
2023/05/07 05:59:20;;;;;;;10.20;7.55;;;;;;;17.04;65.07;99899.63;4901960;28;20126;-89
2023/05/07 06:01:47;;;;;;;16.10;8.30;;;;;;;16.98;64.92;99903.03;4921894;28;20101;-88
2023/05/07 06:04:14;;;;;;;16.08;8.38;;;;;;;16.95;64.72;99894.50;4964844;28;20047;-89
2023/05/07 06:06:41;;;;;;;15.18;8.95;;;;;;;16.98;64.57;99902.19;4916087;28;20767;-88
2023/05/07 06:09:08;;;;;;;15.32;8.65;;;;;;;16.95;64.56;99907.91;4935500;28;20129;-89
2023/05/07 06:11:41;;;;;;;21.10;8.52;;;;;;;16.99;64.87;99909.22;4920318;28;20446;-89
2023/05/07 06:14:09;;;;;;;10.98;7.45;;;;;;;16.93;64.78;99910.75;4940236;28;20510;-90
2023/05/07 06:16:37;;;;;;;16.15;7.47;;;;;;;16.96;64.85;99890.81;4964681;28;20043;-86
2023/05/07 06:19:06;;;;;;;17.08;8.45;;;;;;;17.05;64.88;99897.81;4949515;28;20043;-86
2023/05/07 06:21:33;;;;;;;14.80;7.07;;;;;;;17.08;64.50;99898.28;4930596;28;20058;-85
2023/05/07 06:24:00;;;;;;;15.88;7.28;;;;;;;17.10;64.80;99898.94;4933553;28;20125;-86
2023/05/07 06:26:27;;;;;;;18.83;8.15;;;;;;;17.11;64.75;99900.59;4953428;28;20074;-85
2023/05/07 06:28:54;;;;;;;16.77;7.90;;;;;;;17.12;64.55;99896.06;4906594;28;21711;-87
2023/05/07 06:31:22;;;;;;;15.48;7.53;;;;;;;17.18;64.47;99903.41;4954235;28;20055;-85
2023/05/07 06:33:55;;;;;;;13.27;7.50;;;;;;;17.18;64.78;99902.59;4934008;28;20039;-85
2023/05/07 06:36:24;;;;;;;16.50;8.45;;;;;;;17.17;64.71;99906.28;4944561;28;20380;-86
2023/05/07 06:38:53;;;;;;;17.65;8.30;;;;;;;17.10;64.69;99898.94;4952838;28;20546;-86
2023/05/07 06:41:31;;;;;;;16.73;8.25;;;;;;;17.00;65.01;99892.13;4945845;28;20070;-86
2023/05/07 06:44:05;;;;;;;14.75;8.23;;;;;;;17.08;64.97;99895.59;4945041;28;20514;-85
2023/05/07 06:46:37;;;;;;;18.15;8.38;;;;;;;17.10;65.93;99890.88;4952308;28;20057;-85
2023/05/07 06:49:05;;;;;;;13.90;7.78;;;;;;;17.17;65.39;99898.22;4935965;28;20054;-85
2023/05/07 06:52:07;;;;;;;16.17;8.27;;;;;;;17.07;65.44;99901.13;4899679;28;20066;-87
2023/05/07 06:54:52;;;;;;;13.20;8.25;;;;;;;17.18;65.04;99914.16;4881293;28;20159;-85
2023/05/07 06:57:21;;;;;;;12.10;7.88;;;;;;;17.20;65.39;99905.91;4927745;28;20411;-85
2023/05/07 06:59:48;;;;;;;15.57;7.50;;;;;;;17.26;64.94;99900.69;4944842;28;20050;-85
2023/05/07 07:02:15;;;;;;;12.77;7.47;;;;;;;17.27;65.05;99906.88;4916075;28;20053;-86
2023/05/07 07:04:44;;;;;;;10.45;7.10;;;;;;;17.23;65.47;99893.00;4931068;28;20081;-84
2023/05/07 07:07:12;;;;;;;13.20;7.95;;;;;;;17.24;65.48;99896.50;4949553;28;20386;-85
2023/05/07 07:09:41;;;;;;;14.30;8.80;;;;;;;17.25;65.50;99904.38;4932227;28;20650;-86
2023/05/07 07:12:09;;;;;;;17.08;8.77;;;;;;;17.28;65.59;99901.34;4926663;28;20646;-84
2023/05/07 07:14:38;;;;;;;13.35;7.63;;;;;;;17.32;66.30;99907.19;4929904;28;20135;-85
2023/05/07 07:17:05;;;;;;;19.35;8.15;;;;;;;17.41;66.45;99899.94;4930579;28;20125;-85
2023/05/07 07:19:33;;;;;;;10.35;6.63;;;;;;;17.42;66.55;99902.41;4942363;28;20113;-85
2023/05/07 07:22:02;;;;;;;11.85;7.43;;;;;;;17.44;66.12;99903.09;4905497;28;20792;-85
2023/05/07 07:24:29;;;;;;;13.75;7.57;;;;;;;17.48;66.12;99906.25;4949729;28;20122;-84
2023/05/07 07:27:00;;;;;;;13.77;7.40;;;;;;;17.46;65.86;99898.38;4965765;28;20051;-85
2023/05/07 07:29:27;;;;;;;15.90;7.93;;;;;;;17.46;65.85;99902.91;4948220;28;20185;-84
2023/05/07 07:31:54;;;;;;;13.73;7.50;;;;;;;17.50;66.43;99909.56;4930175;28;20603;-85
2023/05/07 07:34:22;;;;;;;12.25;7.80;;;;;;;17.52;66.10;99905.69;4949429;28;20121;-84
2023/05/07 07:36:49;;;;;;;14.45;7.35;;;;;;;17.48;66.33;99903.56;4951921;28;20074;-84
2023/05/07 07:39:18;;;;;;;16.10;7.50;;;;;;;17.54;66.22;99905.53;4930011;28;20047;-85
2023/05/07 07:41:46;;;;;;;11.00;6.93;;;;;;;17.53;66.62;99910.06;4927878;28;20042;-84
2023/05/07 07:44:15;;;;;;;15.05;7.55;;;;;;;17.62;66.77;99900.09;4932220;28;20047;-84
2023/05/07 07:46:46;;;;;;;14.68;8.05;;;;;;;17.74;66.73;99895.97;4949636;28;20050;-84
2023/05/07 07:49:14;;;;;;;12.82;6.85;;;;;;;17.88;66.00;99898.91;4951505;28;20399;-85
2023/05/07 07:51:42;;;;;;;12.18;7.50;;;;;;;17.89;66.13;99900.59;4930726;28;20910;-84
2023/05/07 07:54:11;;;;;;;11.15;7.40;;;;;;;17.94;65.92;99903.56;4930765;28;20039;-84
2023/05/07 07:56:39;;;;;;;18.02;7.60;;;;;;;17.95;65.97;99903.38;4951313;28;20109;-85
2023/05/07 07:59:07;;;;;;;12.00;7.13;;;;;;;17.91;65.91;99895.84;4947545;28;20051;-85
2023/05/07 08:01:37;;;;;;;15.23;8.05;;;;;;;17.90;65.98;99892.34;4929972;28;20098;-85
2023/05/07 08:04:05;;;;;;;10.07;7.13;;;;;;;17.96;66.05;99894.31;4933658;28;20043;-85
2023/05/07 08:06:35;;;;;;;12.93;6.60;;;;;;;18.04;65.85;99884.47;4962740;28;20043;-84
2023/05/07 08:09:02;;;;;;;9.18;6.63;;;;;;;18.11;66.27;99898.84;4946140;28;20043;-85
2023/05/07 08:11:30;;;;;;;13.55;7.18;;;;;;;18.14;66.06;99890.41;4964590;28;20098;-85
2023/05/07 08:13:58;;;;;;;11.38;6.60;;;;;;;18.16;65.87;99897.28;4936121;28;20130;-84
2023/05/07 08:16:25;;;;;;;13.90;7.68;;;;;;;18.25;66.32;99892.69;4947597;28;20379;-85
2023/05/07 08:18:52;;;;;;;14.23;7.72;;;;;;;18.30;66.72;99892.97;4945880;28;20114;-85
2023/05/07 08:21:20;;;;;;;16.80;7.78;;;;;;;18.35;67.14;99893.22;4945393;28;20050;-84
2023/05/07 08:23:46;;;;;;;12.80;7.15;;;;;;;18.38;67.00;99895.56;4945525;28;20051;-85
2023/05/07 08:26:13;;;;;;;14.73;6.90;;;;;;;18.41;66.57;99894.34;4919343;28;20389;-85
2023/05/07 08:28:41;;;;;;;16.13;8.57;;;;;;;18.51;67.03;99896.75;4943363;28;20043;-84
2023/05/07 08:31:08;;;;;;;13.98;7.80;;;;;;;18.51;66.44;99894.91;4914384;28;22379;-83
2023/05/07 08:33:38;;;;;;;16.27;7.57;;;;;;;18.58;66.22;99881.56;4903087;28;20055;-85
2023/05/07 08:36:05;;;;;;;14.10;7.65;;;;;;;18.66;66.63;99889.53;4914384;28;20067;-85
2023/05/07 08:38:32;;;;;;;13.77;8.02;;;;;;;18.64;66.55;99889.69;4942968;28;20458;-84
2023/05/07 08:41:00;;;;;;;15.80;7.78;;;;;;;18.59;65.41;99888.59;4929113;28;20053;-84
2023/05/07 08:43:31;;;;;;;16.15;8.60;;;;;;;18.62;65.99;99886.38;4925976;28;20047;-84
2023/05/07 08:46:00;;;;;;;12.95;7.75;;;;;;;18.60;65.97;99892.97;4942750;28;20118;-84
2023/05/07 08:48:31;;;;;;;13.13;7.85;;;;;;;18.64;65.86;99894.25;4923819;28;20146;-84
2023/05/07 08:51:06;;;;;;;15.50;8.07;;;;;;;18.65;65.37;99895.94;4957892;28;20071;-84
2023/05/07 08:53:35;;;;;;;15.20;8.13;;;;;;;18.66;66.38;99900.28;4946575;28;20051;-84
2023/05/07 08:56:02;;;;;;;14.45;7.88;;;;;;;18.76;64.58;99895.47;4951572;28;20063;-84
2023/05/07 08:58:29;;;;;;;16.45;8.57;;;;;;;18.64;65.39;99894.25;4932878;28;20047;-84
2023/05/07 09:00:56;;;;;;;20.73;8.40;;;;;;;18.64;65.56;99900.44;4932222;28;20050;-84
2023/05/07 09:03:24;;;;;;;16.33;8.00;;;;;;;18.70;66.02;99911.47;4934458;28;20701;-84
2023/05/07 09:05:54;;;;;;;11.63;7.70;;;;;;;18.72;65.67;99902.22;4950409;28;20040;-84
2023/05/07 09:08:25;;;;;;;30.67;9.13;;;;;;;18.77;65.68;99899.81;4950774;28;20047;-84
2023/05/07 09:10:53;;;;;;;16.52;8.60;;;;;;;18.80;65.41;99906.69;4931971;28;20149;-84
2023/05/07 09:13:22;;;;;;;13.80;7.80;;;;;;;18.82;64.72;99899.25;4917609;28;20047;-84
2023/05/07 09:15:50;;;;;;;12.02;7.55;;;;;;;18.86;65.31;99895.19;4955063;28;20054;-84
2023/05/07 09:18:17;;;;;;;11.70;7.50;;;;;;;18.91;65.55;99890.06;4951762;28;20410;-84
2023/05/07 09:20:46;;;;;;;12.65;7.95;;;;;;;18.93;65.80;99892.56;4939325;28;20057;-84
2023/05/07 09:23:15;;;;;;;18.83;7.88;;;;;;;18.95;65.27;99891.34;4920418;28;20051;-84
2023/05/07 09:25:43;;;;;;;12.63;7.57;;;;;;;19.01;66.26;99887.91;4900836;28;20130;-84
2023/05/07 09:28:17;;;;;;;14.05;7.80;;;;;;;19.07;66.13;99892.53;4950279;28;20055;-84
2023/05/07 09:30:44;;;;;;;17.70;8.02;;;;;;;19.15;66.29;99890.75;4955514;28;20084;-84
2023/05/07 09:33:14;;;;;;;15.88;8.45;;;;;;;19.22;65.26;99888.97;4946214;28;20040;-84
2023/05/07 09:35:45;;;;;;;19.98;8.77;;;;;;;19.24;64.85;99886.94;4965920;28;20070;-84
2023/05/07 09:38:18;;;;;;;15.75;8.32;;;;;;;19.29;64.89;99885.31;4920094;28;20051;-84
2023/05/07 09:40:45;;;;;;;12.35;7.15;;;;;;;19.32;65.15;99870.66;4932692;28;20047;-84
2023/05/07 09:43:14;;;;;;;11.32;6.95;;;;;;;19.39;64.89;99878.81;4917283;28;20126;-84
2023/05/07 09:46:14;;;;;;;12.88;8.57;;;;;;;19.44;63.99;99881.75;4937140;28;20055;-84
2023/05/07 09:48:48;;;;;;;14.40;7.78;;;;;;;19.46;64.68;99869.78;4933675;28;20055;-84
2023/05/07 09:51:22;;;;;;;12.55;8.10;;;;;;;19.49;65.04;99874.75;4947903;28;20086;-83
2023/05/07 09:53:50;;;;;;;16.55;8.70;;;;;;;19.60;64.11;99867.19;4933890;28;20051;-84
2023/05/07 09:56:17;;;;;;;19.80;8.82;;;;;;;19.68;65.59;99875.97;4934790;28;20078;-84
2023/05/07 09:58:45;;;;;;;15.85;8.70;;;;;;;19.73;64.89;99878.09;4933212;28;20049;-84
2023/05/07 10:01:13;;;;;;;13.85;8.40;;;;;;;19.79;64.34;99865.72;4947662;28;20050;-84
2023/05/07 10:03:42;;;;;;;18.55;8.27;;;;;;;19.80;64.08;99864.69;4929595;28;20559;-83
2023/05/07 10:06:10;;;;;;;13.85;7.45;;;;;;;19.79;64.14;99860.31;4931130;28;20102;-84
2023/05/07 10:08:37;;;;;;;12.40;7.63;;;;;;;19.82;63.48;99862.63;4918005;28;20462;-83
2023/05/07 10:11:06;;;;;;;19.25;8.45;;;;;;;19.85;63.92;99855.00;4937871;28;20101;-83
2023/05/07 10:13:37;;;;;;;20.60;8.60;;;;;;;19.82;62.91;99847.31;4968356;28;20081;-84
2023/05/07 10:16:07;;;;;;;16.85;7.50;;;;;;;19.90;63.68;99846.31;4914101;28;20105;-84
2023/05/07 10:18:41;;;;;;;11.88;6.38;;;;;;;19.98;63.32;99848.88;4926453;28;20489;-84
2023/05/07 10:21:16;;;;;;;14.77;7.78;;;;;;;20.03;63.75;99864.47;4925092;28;20058;-84
2023/05/07 10:23:49;;;;;;;15.05;8.57;;;;;;;20.03;62.83;99853.69;4947982;28;20051;-83
2023/05/07 10:26:18;;;;;;;23.92;8.85;;;;;;;20.07;61.81;99852.22;4924476;28;20129;-83
2023/05/07 10:28:51;;;;;;;16.70;8.82;;;;;;;20.08;61.69;99857.44;4917898;28;20051;-83
2023/05/07 10:31:34;;;;;;;11.60;7.90;;;;;;;20.02;61.34;99842.03;4931010;28;20055;-83
2023/05/07 10:34:11;;;;;;;13.43;8.43;;;;;;;20.10;62.34;99849.16;4927753;28;20459;-83
2023/05/07 10:36:39;;;;;;;12.80;7.70;;;;;;;20.07;61.80;99846.84;4962833;28;20043;-83
2023/05/07 10:39:07;;;;;;;11.70;7.53;;;;;;;20.17;61.61;99858.09;4967381;28;20130;-82
2023/05/07 10:41:34;;;;;;;11.40;7.25;;;;;;;20.16;62.22;99849.19;4952852;28;20050;-82
2023/05/07 10:44:02;;;;;;;15.27;8.38;;;;;;;20.19;61.27;99842.56;4930385;28;20138;-83
2023/05/07 10:46:35;;;;;;;15.18;7.80;;;;;;;20.21;61.82;99829.72;4931236;28;21043;-82
2023/05/07 10:49:16;;;;;;;11.15;7.95;;;;;;;20.21;62.16;99850.47;4957807;28;20072;-83
2023/05/07 10:52:24;;;;;;;10.27;5.78;;;;;;;20.17;60.74;99842.78;4930644;28;20059;-83
2023/05/07 10:55:19;;;;;;;14.50;6.78;;;;;;;20.27;58.40;99831.63;4914909;28;20067;-83
2023/05/07 10:57:55;;;;;;;14.10;6.60;;;;;;;20.40;60.16;99830.84;4940994;28;20126;-83
2023/05/07 11:00:26;;;;;;;12.55;6.75;;;;;;;20.54;59.42;99837.16;4927311;28;20047;-84
2023/05/07 11:03:08;;;;;;;11.05;6.85;;;;;;;20.54;60.05;99835.31;4950031;28;20094;-84
2023/05/07 11:06:10;;;;;;;;;;;;;;;20.32;58.59;99829.16;4945114;28;20051;-84
2023/05/07 11:08:55;;;;;;;13.38;7.78;;;;;;;20.46;58.72;99840.03;4949574;28;19993;-84
2023/05/07 11:11:47;;;;;;;13.93;7.28;;;;;;;20.47;58.83;99830.91;4935431;28;20070;-83
2023/05/07 11:14:42;;;;;;;18.55;6.68;;;;;;;20.50;59.15;99825.09;4946179;28;20114;-84
2023/05/07 11:17:13;;;;;;;12.50;6.60;;;;;;;20.58;59.15;99817.72;4942281;28;20043;-84
2023/05/07 11:19:54;;;;;;;15.10;6.55;;;;;;;20.61;58.07;99821.88;4931102;28;20534;-84
2023/05/07 11:22:35;;;;;;;12.13;6.10;;;;;;;20.65;58.48;99811.50;4950024;28;20533;-84
2023/05/07 11:25:08;;;;;;;16.00;6.53;;;;;;;20.72;57.47;99812.38;4930410;28;20054;-84
2023/05/07 11:27:36;;;;;;;10.73;5.60;;;;;;;20.75;56.50;99826.28;4944379;28;20058;-83
2023/05/07 11:30:03;;;;;;;12.02;6.65;;;;;;;20.72;57.06;99820.47;4928815;28;20050;-84
2023/05/07 11:32:32;;;;;;;9.48;6.13;;;;;;;20.80;55.51;99813.00;4947156;28;20546;-83
2023/05/07 11:35:00;;;;;;;11.52;5.80;;;;;;;20.74;57.02;99808.44;4929552;28;20050;-83
2023/05/07 11:37:29;;;;;;;10.80;6.00;;;;;;;20.79;57.09;99813.22;4944502;28;20503;-83